Time;durP1;ratioP1;P1;durP2;ratioP2;P2;SDS_P1;SDS_P2;PMS_P1;PMS_P2;Temp;Humidity;BMP_temperature;BMP_pressure;BME280_temperature;BME280_humidity;BME280_pressure;Samples;Min_cycle;Max_cycle;Signal;HPM_P1;HPM_P2
2023/09/10 00:00:19;;;;;;;23.73;21.33;;;20.90;99.90;;;;;;5049681;28;20048;-66
2023/09/10 00:02:59;;;;;;;27.08;21.42;;;20.90;99.90;;;;;;5049355;28;20438;-66
2023/09/10 00:05:45;;;;;;;22.25;20.02;;;20.80;99.90;;;;;;5049806;28;20052;-67
2023/09/10 00:08:25;;;;;;;23.15;20.85;;;20.70;99.90;;;;;;5057712;28;20098;-65
2023/09/10 00:11:11;;;;;;;25.33;22.85;;;20.70;99.90;;;;;;5069548;28;20075;-65
2023/09/10 00:13:51;;;;;;;25.17;22.67;;;20.70;99.90;;;;;;5069235;28;20511;-65
2023/09/10 00:16:38;;;;;;;24.65;22.17;;;20.60;99.90;;;;;;5069793;28;20052;-66
2023/09/10 00:19:18;;;;;;;26.00;23.42;;;20.60;99.90;;;;;;5069919;28;20048;-66
2023/09/10 00:22:04;;;;;;;24.77;22.27;;;20.50;99.90;;;;;;5069609;28;20376;-65
2023/09/10 00:24:44;;;;;;;24.92;22.65;;;20.40;99.90;;;;;;5069513;28;20408;-66
2023/09/10 00:27:30;;;;;;;25.98;23.38;;;20.30;99.90;;;;;;5069791;28;20059;-66
2023/09/10 00:30:10;;;;;;;26.17;23.48;;;20.30;99.90;;;;;;5069572;28;20056;-66
2023/09/10 00:32:56;;;;;;;26.48;23.75;;;20.20;99.90;;;;;;5069495;28;20374;-66
2023/09/10 00:35:36;;;;;;;25.83;23.13;;;20.10;99.90;;;;;;5069430;28;20056;-66
2023/09/10 00:38:22;;;;;;;28.05;24.88;;;20.10;99.90;;;;;;5069365;28;20095;-65
2023/09/10 00:41:06;;;;;;;28.83;25.92;;;20.10;99.90;;;;;;5069050;28;20040;-65
2023/09/10 00:43:51;;;;;;;27.88;25.10;;;20.10;99.90;;;;;;5068858;28;20051;-67
2023/09/10 00:46:31;;;;;;;28.55;25.52;;;20.10;99.90;;;;;;5068835;28;20687;-65
2023/09/10 00:49:17;;;;;;;28.75;25.92;;;20.00;99.90;;;;;;5069212;28;20068;-66
2023/09/10 00:51:57;;;;;;;28.40;25.67;;;20.10;99.90;;;;;;5069140;28;20106;-65
2023/09/10 00:54:44;;;;;;;29.45;26.45;;;20.10;99.90;;;;;;5068986;28;20056;-66
2023/09/10 00:57:23;;;;;;;30.30;27.20;;;20.10;99.90;;;;;;5057182;28;20181;-67
2023/09/10 01:00:12;;;;;;;30.02;26.65;;;20.10;99.90;;;;;;5028881;28;20064;-66
2023/09/10 01:02:51;;;;;;;30.27;27.05;;;20.10;99.90;;;;;;5028246;28;20101;-67
2023/09/10 01:05:37;;;;;;;29.40;26.40;;;20.00;99.90;;;;;;5029257;28;20061;-67
2023/09/10 01:08:17;;;;;;;31.20;28.08;;;20.00;99.90;;;;;;5034876;28;20057;-66
2023/09/10 01:11:22;;;;;;;29.77;26.65;;;19.90;99.90;;;;;;5054504;28;20045;-66
2023/09/10 01:14:18;;;;;;;31.40;27.95;;;20.00;99.90;;;;;;5055214;28;20060;-66
2023/09/10 01:17:08;;;;;;;29.90;26.90;;;20.00;99.90;;;;;;5037329;28;20053;-66
2023/09/10 01:19:55;;;;;;;30.98;27.80;;;19.90;99.90;;;;;;5055179;28;20472;-66
2023/09/10 01:22:59;;;;;;;29.40;26.50;;;19.90;99.90;;;;;;5055209;28;20064;-66
2023/09/10 01:25:39;;;;;;;30.92;27.63;;;19.90;99.90;;;;;;5055289;28;20041;-66
2023/09/10 01:28:25;;;;;;;30.75;27.52;;;19.90;99.90;;;;;;5047300;28;20060;-66
2023/09/10 01:31:05;;;;;;;32.45;28.88;;;19.90;99.90;;;;;;5055279;28;20052;-67
2023/09/10 01:33:56;;;;;;;30.55;27.48;;;19.90;99.90;;;;;;5054728;28;20492;-66
2023/09/10 01:36:45;;;;;;;31.20;27.90;;;19.90;99.90;;;;;;5055508;28;20393;-66
2023/09/10 01:39:37;;;;;;;31.17;28.17;;;19.80;99.90;;;;;;5057061;28;20053;-65
2023/09/10 01:42:16;;;;;;;32.17;28.85;;;19.70;99.90;;;;;;5053712;28;20056;-65
2023/09/10 01:45:04;;;;;;;31.60;28.58;;;19.60;99.90;;;;;;5055017;28;20048;-65
2023/09/10 01:47:44;;;;;;;33.80;30.20;;;19.70;99.90;;;;;;5055076;28;20061;-67
2023/09/10 01:50:31;;;;;;;32.08;28.83;;;19.70;99.90;;;;;;5055294;28;20045;-65
2023/09/10 01:53:10;;;;;;;33.63;30.27;;;19.60;99.90;;;;;;5054150;28;20102;-65
2023/09/10 01:56:03;;;;;;;33.55;30.15;;;19.60;99.90;;;;;;5054949;28;20052;-66
2023/09/10 01:58:49;;;;;;;32.70;29.38;;;19.60;99.90;;;;;;5072005;28;20071;-66
2023/09/10 02:01:29;;;;;;;33.17;29.42;;;19.60;99.90;;;;;;5067886;28;20060;-66
2023/09/10 02:04:16;;;;;;;33.67;30.17;;;19.70;99.90;;;;;;5073840;28;20060;-66
2023/09/10 02:06:55;;;;;;;32.20;28.80;;;19.50;99.90;;;;;;5058563;28;20058;-65
2023/09/10 02:09:41;;;;;;;32.70;29.20;;;19.60;99.90;;;;;;5074670;28;20059;-65
2023/09/10 02:12:21;;;;;;;32.45;29.15;;;19.60;99.90;;;;;;5070765;28;20048;-64
2023/09/10 02:15:09;;;;;;;34.00;30.35;;;19.50;99.90;;;;;;5074898;28;20488;-65
2023/09/10 02:17:48;;;;;;;34.92;31.13;;;19.50;99.90;;;;;;5074767;28;20538;-66
2023/09/10 02:20:36;;;;;;;34.05;30.55;;;19.50;99.90;;;;;;5074002;28;20045;-66
2023/09/10 02:23:15;;;;;;;34.33;30.83;;;19.50;99.90;;;;;;5071830;28;20056;-66
2023/09/10 02:26:02;;;;;;;35.60;31.88;;;19.50;99.90;;;;;;5072524;28;20051;-65
2023/09/10 02:28:41;;;;;;;36.55;32.50;;;19.40;99.90;;;;;;5054238;28;20129;-65
2023/09/10 02:31:28;;;;;;;36.53;32.72;;;19.40;99.90;;;;;;5056283;28;20067;-67
2023/09/10 02:34:07;;;;;;;37.13;33.25;;;19.30;99.90;;;;;;5071794;28;20074;-65
2023/09/10 02:36:53;;;;;;;37.08;33.20;;;19.20;99.90;;;;;;5071711;28;20067;-65
2023/09/10 02:39:33;;;;;;;37.30;33.35;;;19.30;99.90;;;;;;5056393;28;20113;-66
2023/09/10 02:42:19;;;;;;;36.38;32.60;;;19.20;99.90;;;;;;5071480;28;20519;-65
2023/09/10 02:44:59;;;;;;;37.63;33.63;;;19.10;99.90;;;;;;5072096;28;20052;-67
2023/09/10 02:47:45;;;;;;;36.08;32.30;;;19.20;99.90;;;;;;5071095;28;20055;-66
2023/09/10 02:50:25;;;;;;;37.22;33.22;;;19.10;99.90;;;;;;5044165;28;20103;-65
2023/09/10 02:53:12;;;;;;;36.80;32.90;;;19.00;99.90;;;;;;5051037;28;20346;-65
2023/09/10 02:55:51;;;;;;;38.67;34.67;;;19.00;99.90;;;;;;5051997;28;20107;-67
2023/09/10 02:58:44;;;;;;;38.80;34.65;;;19.00;99.90;;;;;;5059168;28;20063;-66
2023/09/10 03:01:31;;;;;;;39.88;35.70;;;19.00;99.90;;;;;;5071668;28;20150;-65
2023/09/10 03:04:10;;;;;;;36.25;32.42;;;19.00;99.90;;;;;;5089528;28;20130;-67
2023/09/10 03:06:56;;;;;;;39.25;35.17;;;18.90;99.90;;;;;;5091906;28;20147;-66
2023/09/10 03:09:36;;;;;;;39.58;35.33;;;19.00;99.90;;;;;;5090307;28;20060;-65
2023/09/10 03:12:25;;;;;;;38.70;34.65;;;18.90;99.90;;;;;;5090789;28;20078;-66
2023/09/10 03:15:06;;;;;;;40.00;35.60;;;18.90;99.90;;;;;;5091602;28;20055;-65
2023/09/10 03:17:51;;;;;;;39.72;35.42;;;18.90;99.90;;;;;;5089912;28;20044;-65
2023/09/10 03:20:31;;;;;;;37.13;33.03;;;18.90;99.90;;;;;;5070767;28;20075;-66
2023/09/10 03:23:19;;;;;;;41.85;35.47;;;18.80;99.90;;;;;;5070188;28;20067;-65
2023/09/10 03:25:59;;;;;;;40.85;35.78;;;18.90;99.90;;;;;;5071224;28;20040;-65
2023/09/10 03:28:46;;;;;;;41.72;36.05;;;18.80;99.90;;;;;;5070344;28;20056;-67
2023/09/10 03:31:25;;;;;;;39.65;35.28;;;18.80;99.90;;;;;;5070490;28;20369;-65
2023/09/10 03:34:12;;;;;;;39.83;33.88;;;18.80;99.90;;;;;;5068690;28;20052;-66
2023/09/10 03:36:51;;;;;;;39.65;35.50;;;18.80;99.90;;;;;;5071289;28;20113;-65
2023/09/10 03:39:38;;;;;;;38.38;34.33;;;18.80;99.90;;;;;;5071215;28;20055;-64
2023/09/10 03:42:17;;;;;;;40.17;35.88;;;18.80;99.90;;;;;;5071210;28;20443;-66
2023/09/10 03:45:04;;;;;;;38.75;34.55;;;18.80;99.90;;;;;;5070012;28;20067;-66
2023/09/10 03:47:44;;;;;;;42.17;37.15;;;18.80;99.90;;;;;;5052250;28;20056;-65
2023/09/10 03:50:31;;;;;;;42.15;37.60;;;18.70;99.90;;;;;;5050121;28;20059;-67
2023/09/10 03:53:10;;;;;;;42.72;38.08;;;18.70;99.90;;;;;;5049934;28;20079;-65
2023/09/10 03:55:57;;;;;;;41.05;36.65;;;18.70;99.90;;;;;;5050147;28;20049;-65
2023/09/10 03:58:49;;;;;;;41.65;37.15;;;18.70;99.90;;;;;;5057512;28;20060;-65
2023/09/10 04:01:36;;;;;;;43.50;38.20;;;18.60;99.90;;;;;;5070089;28;20483;-65
2023/09/10 04:04:21;;;;;;;42.00;37.53;;;18.60;99.90;;;;;;5069857;28;20049;-66
2023/09/10 04:07:08;;;;;;;43.70;38.85;;;18.60;99.90;;;;;;5070198;28;20049;-65
2023/09/10 04:09:47;;;;;;;44.85;39.35;;;18.60;99.90;;;;;;5068135;28;20177;-65
2023/09/10 04:12:34;;;;;;;46.30;39.38;;;18.60;99.90;;;;;;5089946;28;20059;-66
2023/09/10 04:15:13;;;;;;;44.00;39.22;;;18.60;99.90;;;;;;5090765;28;20048;-65
2023/09/10 04:18:00;;;;;;;46.22;41.30;;;18.60;99.90;;;;;;5088239;28;20063;-65
2023/09/10 04:20:39;;;;;;;45.92;40.97;;;18.60;99.90;;;;;;5070399;28;20054;-65
2023/09/10 04:23:26;;;;;;;47.78;41.67;;;18.50;99.90;;;;;;5069889;28;20385;-66
2023/09/10 04:26:05;;;;;;;44.55;39.25;;;18.60;99.90;;;;;;5069977;28;20052;-65
2023/09/10 04:28:52;;;;;;;45.67;40.67;;;18.50;99.90;;;;;;5069304;28;20041;-64
2023/09/10 04:31:31;;;;;;;47.22;42.10;;;18.60;99.90;;;;;;5070173;28;20048;-66
2023/09/10 04:34:18;;;;;;;44.80;39.95;;;18.60;99.90;;;;;;5069605;28;20059;-66
2023/09/10 04:36:57;;;;;;;45.30;40.03;;;18.60;99.90;;;;;;5069961;28;20056;-65
2023/09/10 04:39:44;;;;;;;46.03;41.13;;;18.60;99.90;;;;;;5069598;28;20067;-65
2023/09/10 04:42:23;;;;;;;44.78;39.97;;;18.60;99.90;;;;;;5069705;28;20052;-65
2023/09/10 04:45:10;;;;;;;46.08;39.00;;;18.50;99.90;;;;;;5068764;28;20076;-66
2023/09/10 04:47:49;;;;;;;45.72;40.63;;;18.60;99.90;;;;;;5068546;28;20387;-66
2023/09/10 04:50:36;;;;;;;45.63;40.47;;;18.60;99.90;;;;;;5049128;28;20049;-65
2023/09/10 04:53:15;;;;;;;47.05;40.65;;;18.60;99.90;;;;;;5048998;28;20157;-65
2023/09/10 04:56:02;;;;;;;45.28;40.30;;;18.50;99.90;;;;;;5048049;28;20484;-65
2023/09/10 04:58:54;;;;;;;46.00;41.03;;;18.60;99.90;;;;;;5037115;28;20473;-65
2023/09/10 05:01:48;;;;;;;46.20;40.95;;;18.60;99.90;;;;;;5049016;28;20060;-65
2023/09/10 05:04:34;;;;;;;46.25;38.35;;;18.60;99.90;;;;;;5042052;28;20520;-65
2023/09/10 05:07:13;;;;;;;47.10;40.15;;;18.50;99.90;;;;;;5049214;28;20049;-65
2023/09/10 05:10:00;;;;;;;45.13;40.25;;;18.40;99.90;;;;;;5048552;28;20048;-65
2023/09/10 05:12:39;;;;;;;47.22;41.63;;;18.50;99.90;;;;;;5049244;28;20041;-65
2023/09/10 05:15:26;;;;;;;48.63;41.00;;;18.50;99.90;;;;;;5049536;28;20369;-67
2023/09/10 05:18:05;;;;;;;47.22;41.97;;;18.50;99.90;;;;;;5049526;28;20469;-64
2023/09/10 05:20:53;;;;;;;48.50;41.55;;;18.50;99.90;;;;;;5049854;28;20469;-65
2023/09/10 05:23:34;;;;;;;44.17;39.35;;;18.60;99.90;;;;;;5048965;28;20051;-66
2023/09/10 05:26:22;;;;;;;48.47;40.95;;;18.70;99.90;;;;;;5049452;28;20048;-65
2023/09/10 05:29:01;;;;;;;46.22;40.95;;;18.80;99.90;;;;;;5049362;28;20041;-65
2023/09/10 05:31:49;;;;;;;46.83;41.40;;;18.60;99.90;;;;;;5049514;28;20071;-65
2023/09/10 05:34:28;;;;;;;48.50;41.00;;;18.80;99.90;;;;;;5049428;28;20114;-64
2023/09/10 05:37:15;;;;;;;43.45;38.75;;;18.80;99.90;;;;;;5049410;28;20049;-67
2023/09/10 05:39:55;;;;;;;44.53;38.92;;;18.90;99.90;;;;;;5049593;28;20424;-64
2023/09/10 05:42:44;;;;;;;43.80;38.28;;;18.90;99.90;;;;;;5049000;28;20041;-65
2023/09/10 05:45:25;;;;;;;44.28;38.50;;;19.00;99.90;;;;;;5041365;28;20053;-65
2023/09/10 05:48:12;;;;;;;42.47;37.20;;;19.20;99.90;;;;;;5048186;28;20068;-65
2023/09/10 05:50:51;;;;;;;43.30;37.08;;;19.50;99.90;;;;;;5048877;28;20045;-65
2023/09/10 05:53:40;;;;;;;42.65;38.15;;;19.70;99.90;;;;;;5048432;28;20045;-66
2023/09/10 05:56:19;;;;;;;42.53;37.92;;;19.90;99.90;;;;;;5051578;28;20071;-66
2023/09/10 05:59:06;;;;;;;39.38;35.20;;;20.10;99.90;;;;;;5072496;28;20049;-66
2023/09/10 06:01:45;;;;;;;40.53;36.33;;;20.20;99.90;;;;;;5072610;28;20132;-67
2023/09/10 06:04:33;;;;;;;40.20;35.83;;;20.40;99.90;;;;;;5065357;28;20048;-66
2023/09/10 06:07:12;;;;;;;42.05;37.78;;;20.50;99.90;;;;;;5072627;28;20056;-65
2023/09/10 06:09:59;;;;;;;40.80;36.33;;;20.70;99.90;;;;;;5073178;28;20052;-65
2023/09/10 06:12:38;;;;;;;41.15;36.83;;;20.90;99.90;;;;;;5073049;28;20048;-65
2023/09/10 06:15:27;;;;;;;40.97;36.50;;;21.00;99.90;;;;;;5072634;28;20056;-65
2023/09/10 06:18:06;;;;;;;39.00;34.80;;;21.20;99.90;;;;;;5072154;28;20056;-65
2023/09/10 06:20:53;;;;;;;40.95;36.75;;;21.30;99.90;;;;;;5072534;28;20052;-66
2023/09/10 06:23:32;;;;;;;39.45;35.10;;;21.40;99.90;;;;;;5073048;28;20087;-66
2023/09/10 06:26:19;;;;;;;40.38;36.08;;;21.50;99.90;;;;;;5072988;28;20059;-67
2023/09/10 06:28:58;;;;;;;40.35;35.95;;;21.70;99.90;;;;;;5072646;28;20056;-65
2023/09/10 06:31:45;;;;;;;41.17;36.85;;;21.90;99.90;;;;;;5072517;28;20501;-67
2023/09/10 06:34:24;;;;;;;40.42;36.08;;;22.00;99.90;;;;;;5065159;28;20052;-65
2023/09/10 06:37:11;;;;;;;41.08;36.67;;;22.10;99.90;;;;;;5073191;28;20063;-65
2023/09/10 06:39:50;;;;;;;40.97;36.67;;;22.30;99.90;;;;;;5072860;28;20503;-65
2023/09/10 06:42:37;;;;;;;38.67;34.08;;;22.40;99.90;;;;;;5092295;28;20360;-65
2023/09/10 06:45:16;;;;;;;37.17;33.28;;;22.40;99.90;;;;;;5086313;28;20048;-65
2023/09/10 06:48:03;;;;;;;40.25;35.95;;;22.50;99.90;;;;;;5072750;28;20044;-66
2023/09/10 06:50:42;;;;;;;41.15;36.88;;;22.60;99.90;;;;;;5072880;28;20418;-66
2023/09/10 06:53:30;;;;;;;39.35;35.17;;;22.60;99.90;;;;;;5072861;28;20064;-65
2023/09/10 06:56:09;;;;;;;38.17;34.25;;;22.70;99.90;;;;;;5072448;28;20056;-66
2023/09/10 06:59:02;;;;;;;39.42;34.47;;;22.60;99.90;;;;;;5052522;28;20473;-66
2023/09/10 07:01:49;;;;;;;42.50;34.88;;;22.50;99.90;;;;;;5052718;28;20045;-65
2023/09/10 07:04:34;;;;;;;38.08;34.10;;;22.40;99.90;;;;;;5051373;28;20484;-64
2023/09/10 07:07:27;;;;;;;40.05;35.85;;;22.40;99.90;;;;;;5016129;28;20060;-67
2023/09/10 07:10:06;;;;;;;41.05;36.67;;;22.30;99.90;;;;;;5053343;28;20110;-65
2023/09/10 07:12:53;;;;;;;39.38;35.17;;;22.30;99.90;;;;;;5052695;28;20159;-65
2023/09/10 07:15:32;;;;;;;38.50;34.55;;;22.30;99.90;;;;;;5035101;28;20045;-65
2023/09/10 07:18:19;;;;;;;37.45;33.60;;;22.40;99.90;;;;;;5049640;28;20072;-66
2023/09/10 07:20:58;;;;;;;37.40;33.58;;;22.50;99.90;;;;;;5049584;28;20083;-65
2023/09/10 07:23:45;;;;;;;36.25;32.35;;;22.60;99.90;;;;;;5047191;28;20064;-66
2023/09/10 07:26:24;;;;;;;36.90;31.83;;;22.70;99.90;;;;;;5053127;28;20053;-65
2023/09/10 07:29:15;;;;;;;39.60;33.72;;;22.80;99.90;;;;;;5052329;28;20429;-65
2023/09/10 07:31:55;;;;;;;37.03;33.28;;;22.80;99.90;;;;;;5052860;28;20563;-66
2023/09/10 07:34:42;;;;;;;37.40;33.33;;;23.00;99.90;;;;;;5053177;28;20057;-65
2023/09/10 07:37:21;;;;;;;35.75;32.15;;;23.10;99.90;;;;;;5037924;28;20102;-65
2023/09/10 07:40:09;;;;;;;36.20;32.45;;;23.20;99.90;;;;;;5052874;28;20067;-65
2023/09/10 07:42:50;;;;;;;35.47;31.70;;;23.30;99.90;;;;;;5052229;28;20060;-64
2023/09/10 07:45:36;;;;;;;36.35;32.50;;;23.50;99.90;;;;;;5051696;28;20060;-65
2023/09/10 07:48:16;;;;;;;36.15;32.35;;;23.60;99.90;;;;;;5052227;28;20045;-65
2023/09/10 07:51:02;;;;;;;35.25;31.40;;;23.80;99.90;;;;;;5052989;28;20060;-65
2023/09/10 07:53:42;;;;;;;36.50;31.65;;;24.00;99.90;;;;;;5052058;28;20045;-65
2023/09/10 07:56:34;;;;;;;36.20;32.45;;;24.00;99.90;;;;;;5052987;28;20056;-65
2023/09/10 07:59:21;;;;;;;35.05;31.35;;;24.10;99.90;;;;;;5066246;28;20068;-65
2023/09/10 08:02:01;;;;;;;32.55;29.15;;;24.30;99.90;;;;;;5052032;28;20049;-65
2023/09/10 08:04:47;;;;;;;33.67;30.17;;;24.40;99.90;;;;;;5052342;28;20045;-66
2023/09/10 08:07:27;;;;;;;32.75;29.45;;;24.50;99.90;;;;;;5051979;28;20080;-65
2023/09/10 08:10:13;;;;;;;33.25;29.73;;;24.70;99.90;;;;;;5070829;28;20051;-65
2023/09/10 08:12:53;;;;;;;33.97;30.35;;;24.70;99.90;;;;;;5072513;28;20057;-65
2023/09/10 08:15:43;;;;;;;33.00;29.67;;;24.80;99.90;;;;;;5071618;28;20527;-66
2023/09/10 08:18:23;;;;;;;32.80;29.35;;;25.00;99.90;;;;;;5070127;28;20052;-65
2023/09/10 08:21:09;;;;;;;32.85;29.55;;;25.00;99.90;;;;;;5072087;28;20049;-65
2023/09/10 08:23:49;;;;;;;33.08;29.65;;;25.00;99.90;;;;;;5071384;28;20071;-65
2023/09/10 08:26:36;;;;;;;32.33;29.00;;;25.10;99.90;;;;;;5072078;28;20484;-65
2023/09/10 08:29:16;;;;;;;31.00;27.77;;;25.20;99.90;;;;;;5061373;28;20185;-65
2023/09/10 08:32:03;;;;;;;31.88;28.67;;;25.30;99.90;;;;;;5063561;28;20091;-66
2023/09/10 08:34:43;;;;;;;29.98;26.83;;;25.40;99.90;;;;;;5065911;28;20106;-66
2023/09/10 08:37:29;;;;;;;30.67;27.42;;;25.40;99.90;;;;;;5057185;28;20357;-65
2023/09/10 08:40:10;;;;;;;30.13;27.02;;;25.50;99.90;;;;;;5056635;28;20102;-66
2023/09/10 08:43:08;;;;;;;30.58;27.40;;;25.60;99.90;;;;;;5057691;28;20052;-65
2023/09/10 08:45:49;;;;;;;29.33;26.42;;;25.70;99.90;;;;;;5064569;28;20107;-65
2023/09/10 08:48:40;;;;;;;30.73;27.52;;;25.70;99.90;;;;;;5067760;28;20060;-65
2023/09/10 08:51:20;;;;;;;30.45;27.23;;;25.80;99.90;;;;;;5052069;28;20060;-66
2023/09/10 08:54:08;;;;;;;30.38;27.27;;;25.90;99.90;;;;;;5052102;28;20143;-67
2023/09/10 08:56:56;;;;;;;29.48;26.42;;;26.00;99.90;;;;;;5054272;28;20053;-66
2023/09/10 08:59:43;;;;;;;28.45;25.65;;;26.00;99.90;;;;;;5072474;28;20063;-66
2023/09/10 09:02:23;;;;;;;27.55;24.77;;;26.10;99.90;;;;;;5072095;28;20056;-66
2023/09/10 09:05:09;;;;;;;25.48;22.80;;;26.20;99.90;;;;;;5071994;28;20147;-65
2023/09/10 09:07:54;;;;;;;27.63;24.75;;;26.20;99.90;;;;;;5072443;28;20457;-66
2023/09/10 09:10:40;;;;;;;26.60;23.92;;;26.30;99.90;;;;;;5051868;28;20056;-66
2023/09/10 09:13:20;;;;;;;24.55;22.02;;;26.30;99.90;;;;;;5088313;28;20048;-66
2023/09/10 09:16:07;;;;;;;24.77;22.20;;;26.50;99.90;;;;;;5092024;28;20048;-67
2023/09/10 09:18:48;;;;;;;25.02;22.63;;;26.60;99.90;;;;;;5078795;28;20121;-66
2023/09/10 09:21:35;;;;;;;25.52;23.02;;;26.60;99.90;;;;;;5071090;28;20071;-66
2023/09/10 09:24:16;;;;;;;27.02;24.13;;;26.80;99.90;;;;;;5051247;28;20049;-66
2023/09/10 09:27:03;;;;;;;24.58;22.08;;;26.70;99.90;;;;;;5068324;28;20052;-66
2023/09/10 09:29:44;;;;;;;24.83;22.25;;;26.80;99.90;;;;;;5073044;28;20053;-68
2023/09/10 09:32:31;;;;;;;25.20;22.55;;;26.90;99.90;;;;;;5054958;28;20071;-67
2023/09/10 09:35:12;;;;;;;24.70;22.27;;;27.00;99.90;;;;;;5083534;28;20071;-65
2023/09/10 09:38:05;;;;;;;21.48;19.45;;;27.20;99.90;;;;;;5054245;28;20045;-65
2023/09/10 09:40:45;;;;;;;25.38;22.77;;;27.20;99.90;;;;;;5055999;28;20365;-65
2023/09/10 09:43:35;;;;;;;22.77;20.02;;;27.30;99.90;;;;;;5055155;28;20060;-66
2023/09/10 09:46:14;;;;;;;23.52;20.00;;;27.30;99.90;;;;;;5054851;28;20049;-65
2023/09/10 09:49:00;;;;;;;20.70;18.67;;;27.40;99.90;;;;;;5062632;28;20067;-65
2023/09/10 09:51:40;;;;;;;21.95;19.85;;;27.40;99.90;;;;;;5075383;28;20114;-65
2023/09/10 09:54:27;;;;;;;23.83;21.35;;;27.40;99.90;;;;;;5074054;28;20052;-66
2023/09/10 09:57:07;;;;;;;21.02;18.92;;;27.40;99.90;;;;;;5065403;27;20044;-66
2023/09/10 09:59:53;;;;;;;20.67;17.55;;;27.40;99.90;;;;;;5077714;28;20049;-65
2023/09/10 10:02:33;;;;;;;19.90;17.75;;;27.70;99.90;;;;;;5076509;28;20045;-66
2023/09/10 10:05:19;;;;;;;20.67;18.58;;;27.70;99.90;;;;;;5092106;28;20365;-66
2023/09/10 10:07:59;;;;;;;20.95;18.75;;;27.60;99.90;;;;;;5085103;28;20036;-66
2023/09/10 10:10:49;;;;;;;19.88;17.48;;;27.70;99.90;;;;;;5095941;28;20044;-66
2023/09/10 10:13:31;;;;;;;17.58;15.68;;;27.80;99.90;;;;;;5076646;28;20044;-66
2023/09/10 10:16:17;;;;;;;18.92;16.92;;;27.80;99.90;;;;;;5055296;28;20055;-66
2023/09/10 10:18:57;;;;;;;18.88;16.90;;;27.80;99.90;;;;;;5061916;28;20048;-66
2023/09/10 10:21:45;;;;;;;17.05;15.32;;;27.70;99.90;;;;;;5093941;28;20044;-66
2023/09/10 10:24:26;;;;;;;17.63;15.77;;;27.80;99.90;;;;;;5093577;28;20093;-65
2023/09/10 10:27:14;;;;;;;17.23;14.07;;;27.70;99.90;;;;;;5086429;28;20040;-66
2023/09/10 10:29:54;;;;;;;17.95;14.43;;;28.00;99.90;;;;;;5083437;28;20044;-67
2023/09/10 10:32:43;;;;;;;17.50;13.55;;;28.10;99.90;;;;;;5060844;28;20044;-66
2023/09/10 10:35:23;;;;;;;19.17;14.38;;;28.30;99.90;;;;;;5089470;28;20052;-66
2023/09/10 10:38:13;;;;;;;15.35;13.10;;;28.20;99.90;;;;;;5064711;28;20062;-67
2023/09/10 10:40:57;;;;;;;18.92;14.07;;;28.30;99.90;;;;;;5083734;28;20463;-65
2023/09/10 10:43:52;;;;;;;16.52;13.23;;;28.40;99.90;;;;;;5050790;28;20044;-69
2023/09/10 10:46:41;;;;;;;17.70;12.65;;;28.50;99.90;;;;;;5049989;28;20059;-69
2023/09/10 10:49:21;;;;;;;16.65;11.85;;;28.60;99.90;;;;;;5051484;28;20573;-70
2023/09/10 10:52:12;;;;;;;16.77;12.77;;;28.70;99.90;;;;;;5068741;28;20063;-71
2023/09/10 10:54:53;;;;;;;16.05;11.50;;;28.70;99.90;;;;;;5052412;28;20094;-68
2023/09/10 10:57:40;;;;;;;17.13;11.02;;;28.80;99.90;;;;;;5054204;28;20056;-68
2023/09/10 11:00:20;;;;;;;17.23;11.90;;;28.80;99.90;;;;;;5070706;28;20064;-68
2023/09/10 11:03:23;;;;;;;19.13;9.77;;;28.70;99.90;;;;;;5070282;28;20508;-71
2023/09/10 11:06:04;;;;;;;20.77;10.52;;;28.80;99.90;;;;;;5070641;28;20098;-69
2023/09/10 11:08:51;;;;;;;20.88;9.50;;;28.80;99.90;;;;;;5074342;28;20097;-69
2023/09/10 11:11:37;;;;;;;24.35;10.18;;;28.90;99.90;;;;;;5090003;28;20499;-67
2023/09/10 11:14:22;;;;;;;19.08;9.77;;;29.00;99.90;;;;;;5090224;28;20382;-68
2023/09/10 11:17:24;;;;;;;17.77;9.27;;;28.90;99.90;;;;;;5090474;28;20119;-69
2023/09/10 11:20:10;;;;;;;23.58;10.05;;;29.00;99.90;;;;;;5073380;28;20045;-68
2023/09/10 11:23:08;;;;;;;18.98;9.73;;;29.10;99.90;;;;;;5051581;28;20102;-69
2023/09/10 11:25:55;;;;;;;15.07;9.07;;;29.10;99.90;;;;;;5050789;28;20051;-70
2023/09/10 11:28:46;;;;;;;16.17;9.43;;;29.10;99.90;;;;;;5040087;28;20056;-70
2023/09/10 11:31:45;;;;;;;13.60;8.38;;;29.20;99.90;;;;;;5058985;28;20050;-72
2023/09/10 11:34:27;;;;;;;16.55;8.63;;;29.20;99.90;;;;;;5054598;28;20064;-69
2023/09/10 11:37:15;;;;;;;24.92;10.52;;;29.40;99.90;;;;;;5041092;28;20083;-69
2023/09/10 11:39:54;;;;;;;20.45;9.35;;;29.40;99.90;;;;;;5043744;28;20041;-70
2023/09/10 11:42:42;;;;;;;22.35;9.43;;;29.40;99.90;;;;;;5040787;28;20048;-71
2023/09/10 11:45:22;;;;;;;22.27;8.80;;;29.40;99.90;;;;;;5065647;28;20048;-65
2023/09/10 11:48:08;;;;;;;20.40;8.98;;;29.40;99.90;;;;;;5056557;28;20067;-65
2023/09/10 11:50:50;;;;;;;19.77;8.60;;;29.50;99.90;;;;;;5072011;28;20091;-66
2023/09/10 11:53:36;;;;;;;22.83;9.52;;;29.40;99.90;;;;;;5064827;28;20068;-67
2023/09/10 11:56:15;;;;;;;20.30;8.40;;;29.50;99.90;;;;;;5072111;28;20064;-66
2023/09/10 11:59:01;;;;;;;25.48;8.45;;;29.50;99.90;;;;;;5056417;28;20047;-66
2023/09/10 12:01:41;;;;;;;20.73;8.85;;;29.50;99.90;;;;;;5051757;28;20143;-67
2023/09/10 12:04:26;;;;;;;19.88;8.27;;;29.50;99.90;;;;;;5051043;28;20041;-66
2023/09/10 12:07:06;;;;;;;23.25;8.73;;;29.60;99.90;;;;;;5035625;28;20049;-66
2023/09/10 12:09:51;;;;;;;20.67;8.45;;;29.60;99.90;;;;;;5051660;28;20072;-66
2023/09/10 12:12:35;;;;;;;20.65;8.85;;;29.60;99.90;;;;;;5051659;28;20479;-66
2023/09/10 12:15:21;;;;;;;21.40;8.73;;;29.60;99.90;;;;;;5051912;28;20481;-66
2023/09/10 12:18:04;;;;;;;21.42;7.75;;;29.60;99.90;;;;;;5051442;28;20048;-67
2023/09/10 12:20:49;;;;;;;25.05;8.10;;;29.60;99.90;;;;;;5031223;28;20489;-66
2023/09/10 12:23:28;;;;;;;24.38;8.32;;;29.70;99.90;;;;;;5031291;28;20118;-65
2023/09/10 12:26:15;;;;;;;20.02;8.55;;;29.80;99.90;;;;;;5032381;28;20057;-65
2023/09/10 12:28:55;;;;;;;16.88;7.97;;;29.70;99.90;;;;;;5036214;28;20118;-66
2023/09/10 12:31:41;;;;;;;20.00;8.07;;;29.80;99.90;;;;;;5052211;28;20056;-67
2023/09/10 12:34:21;;;;;;;20.90;8.40;;;29.80;99.90;;;;;;5052530;28;20044;-67
2023/09/10 12:37:07;;;;;;;23.20;7.43;;;29.80;99.90;;;;;;5051963;28;20404;-67
2023/09/10 12:39:46;;;;;;;20.10;8.02;;;29.80;99.90;;;;;;5032218;28;20045;-66
2023/09/10 12:42:34;;;;;;;21.30;8.45;;;29.90;99.90;;;;;;5050391;28;20484;-65
2023/09/10 12:45:14;;;;;;;20.85;7.95;;;29.80;99.90;;;;;;5050748;28;20470;-67
2023/09/10 12:48:00;;;;;;;20.70;8.02;;;29.80;99.90;;;;;;5051793;28;20059;-66
2023/09/10 12:50:39;;;;;;;17.45;8.10;;;29.80;99.90;;;;;;5051837;28;20102;-68
2023/09/10 12:53:25;;;;;;;20.92;7.55;;;29.80;99.90;;;;;;5070047;28;20059;-67
2023/09/10 12:56:06;;;;;;;19.38;8.10;;;29.80;99.90;;;;;;5070313;28;20044;-64
2023/09/10 12:58:51;;;;;;;19.02;8.55;;;29.90;99.90;;;;;;5071046;28;20089;-66
2023/09/10 13:01:30;;;;;;;21.25;8.60;;;29.80;99.90;;;;;;5068879;28;20053;-65
2023/09/10 13:04:17;;;;;;;20.10;8.02;;;29.80;99.90;;;;;;5068587;28;20053;-64
2023/09/10 13:06:55;;;;;;;15.38;7.95;;;29.90;99.90;;;;;;5068864;28;20189;-65
2023/09/10 13:09:41;;;;;;;16.95;8.23;;;29.80;99.90;;;;;;5063244;28;20136;-67
2023/09/10 13:12:23;;;;;;;18.05;8.02;;;29.80;99.90;;;;;;5089359;28;20115;-66
2023/09/10 13:15:10;;;;;;;17.15;8.13;;;29.80;99.90;;;;;;5089486;28;20048;-67
2023/09/10 13:17:49;;;;;;;17.27;8.65;;;29.90;99.90;;;;;;5089861;28;20357;-67
2023/09/10 13:20:35;;;;;;;15.00;8.35;;;30.00;99.90;;;;;;5071020;28;20053;-67
2023/09/10 13:23:14;;;;;;;19.85;8.32;;;29.90;99.90;;;;;;5069216;28;20102;-67
2023/09/10 13:26:00;;;;;;;22.52;8.40;;;30.00;99.90;;;;;;5069105;28;20127;-67
2023/09/10 13:28:39;;;;;;;20.00;8.48;;;30.00;99.90;;;;;;5069550;28;20040;-67
2023/09/10 13:31:26;;;;;;;17.25;7.82;;;30.10;99.90;;;;;;5068924;28;20452;-68
2023/09/10 13:34:05;;;;;;;21.08;8.45;;;30.10;99.90;;;;;;5069277;28;20128;-67
2023/09/10 13:36:50;;;;;;;16.20;7.55;;;30.10;99.90;;;;;;5069074;28;20684;-66
2023/09/10 13:39:31;;;;;;;18.20;8.05;;;30.20;99.90;;;;;;5069000;28;20125;-67
2023/09/10 13:42:16;;;;;;;19.35;8.75;;;30.20;99.90;;;;;;5068076;28;20055;-67
2023/09/10 13:44:56;;;;;;;15.07;7.90;;;30.20;99.90;;;;;;5068939;28;20551;-67
2023/09/10 13:47:41;;;;;;;17.27;7.50;;;30.20;99.90;;;;;;5068897;28;20051;-68
2023/09/10 13:50:21;;;;;;;16.85;8.05;;;30.10;99.90;;;;;;5068192;28;20040;-66
2023/09/10 13:53:06;;;;;;;20.85;7.90;;;30.30;99.90;;;;;;5068446;28;20055;-66